Aérodrome :
LOGIN :

S'inscrire | Disclaimer

   EN    FR    IT 

 










Légende :    VFR   VFR Marginal   IFR   IFR Intensif   IFR Très Intensif
Visi : 
Plafond : 
>= 8 km
>= 3000ft
5 à 8 km
1000 à 3000 ft
1500m à 5 km
500 à 1000 ft
800 à 1500m
200 à 500 ft
< 800m
< 200 ft
Symboles :   Orages  Brouillard  Fortes neiges  Fortes précipitations  Vent > 20 kt
SIGMETs :   Divers  Orages  Givrage  Turbulence  Onde Orograph.  Cendres Volcan.






- Altitude de l'aérodrome : 1475 ft


LSZC - Buochs Stans

DERNIER METAR :
  • 291750Z AUTO VRB03KT 9999 NSC 01/M04 Q1006

METARs EXPIRÉS :
  • 291720Z AUTO 27004KT 9999 OVC120 01/M03 Q1006
  • 291650Z AUTO 29003KT 250V350 9999 FEW120 01/M04 Q1006
  • 291620Z AUTO 28004KT 250V320 9999 FEW120 01/M03 Q1006
  • 291550Z AUTO 27004KT 230V290 CAVOK 01/M03 Q1006
  • 291520Z AUTO 26004KT 9999 NSC 02/M03 Q1006
  • 291450Z 27003KT CAVOK 02/M03 Q1006
  • 291420Z 18005KT CAVOK 03/M03 Q1006
  • 291350Z 18006KT CAVOK 03/M03 Q1007
  • 291320Z VRB02KT CAVOK 04/M03 Q1007

TAF TAF LSZC
Valide du 29 à 15h jusqu'au 30 à 00h UTC


291425Z 2915/2924 VRB02KT CAVOK
BECMG 2916/2919 9999 BKN120



MET'MAP, la Météo Aéronautique d'un coup d'oeil ! - Copyright ORBIFLY Décembre 2007 - Disclaimer

ORBIFLY MET'MAP TEAM :

Programmation & Développement : Alexandra Zaïnal
Sur une idée originale de : Baudouin d'Aumeries
Soutien technique & logistique : Manuel Goepfert
Assistance : Marc-Olivier Méhu




SOURCES & CREDITS :

   NOAA